sensor_id;sensor_type;location;lat;lon;timestamp;pressure;altitude;pressure_sealevel;temperature;humidity
44441;BME280;30146;52.268;20.944;2023-02-26T00:01:39;98922.11;;;2.80;69.36
44441;BME280;30146;52.268;20.944;2023-02-26T00:04:08;98925.48;;;2.78;69.31
44441;BME280;30146;52.268;20.944;2023-02-26T00:06:39;98929.20;;;2.74;69.01
44441;BME280;30146;52.268;20.944;2023-02-26T00:09:19;98933.93;;;2.66;68.69
44441;BME280;30146;52.268;20.944;2023-02-26T00:11:47;98936.63;;;2.61;68.58
44441;BME280;30146;52.268;20.944;2023-02-26T00:14:17;98937.48;;;2.58;68.75
44441;BME280;30146;52.268;20.944;2023-02-26T00:16:48;98945.73;;;2.54;68.71
44441;BME280;30146;52.268;20.944;2023-02-26T00:19:18;98950.29;;;2.50;68.67
44441;BME280;30146;52.268;20.944;2023-02-26T00:21:47;98954.67;;;2.48;68.72
44441;BME280;30146;52.268;20.944;2023-02-26T00:24:15;98961.93;;;2.47;68.48
44441;BME280;30146;52.268;20.944;2023-02-26T00:26:43;98969.84;;;2.45;68.60
44441;BME280;30146;52.268;20.944;2023-02-26T00:29:12;98971.86;;;2.45;68.87
44441;BME280;30146;52.268;20.944;2023-02-26T00:31:41;98974.73;;;2.45;68.74
44441;BME280;30146;52.268;20.944;2023-02-26T00:34:12;98977.77;;;2.43;68.57
44441;BME280;30146;52.268;20.944;2023-02-26T00:36:47;98981.65;;;2.41;68.24
44441;BME280;30146;52.268;20.944;2023-02-26T00:39:20;98981.46;;;2.37;68.48
44441;BME280;30146;52.268;20.944;2023-02-26T00:41:55;98982.13;;;2.37;68.39
44441;BME280;30146;52.268;20.944;2023-02-26T00:44:24;98984.16;;;2.35;68.38
44441;BME280;30146;52.268;20.944;2023-02-26T00:46:57;98988.04;;;2.29;68.25
44441;BME280;30146;52.268;20.944;2023-02-26T00:49:42;98993.92;;;2.23;67.97
44441;BME280;30146;52.268;20.944;2023-02-26T00:52:17;99001.65;;;2.17;67.67
44441;BME280;30146;52.268;20.944;2023-02-26T00:54:47;99001.14;;;2.13;67.67
44441;BME280;30146;52.268;20.944;2023-02-26T00:57:15;99002.64;;;2.08;67.56
44441;BME280;30146;52.268;20.944;2023-02-26T00:59:43;99006.98;;;2.02;67.56
44441;BME280;30146;52.268;20.944;2023-02-26T01:02:11;99006.84;;;1.99;67.60
44441;BME280;30146;52.268;20.944;2023-02-26T01:04:41;99012.52;;;1.95;67.52
44441;BME280;30146;52.268;20.944;2023-02-26T01:07:10;99016.23;;;1.92;67.57
44441;BME280;30146;52.268;20.944;2023-02-26T01:09:39;99019.59;;;1.90;67.65
44441;BME280;30146;52.268;20.944;2023-02-26T01:12:11;99014.37;;;1.90;67.60
44441;BME280;30146;52.268;20.944;2023-02-26T01:14:42;99025.15;;;1.89;67.74
44441;BME280;30146;52.268;20.944;2023-02-26T01:17:16;99027.35;;;1.89;67.60
44441;BME280;30146;52.268;20.944;2023-02-26T01:19:48;99027.52;;;1.89;67.79
44441;BME280;30146;52.268;20.944;2023-02-26T01:22:22;99032.39;;;1.89;67.69
44441;BME280;30146;52.268;20.944;2023-02-26T01:24:58;99040.98;;;1.88;67.55
44441;BME280;30146;52.268;20.944;2023-02-26T01:27:28;99041.81;;;1.84;67.37
44441;BME280;30146;52.268;20.944;2023-02-26T01:29:57;99047.35;;;1.81;67.15
44441;BME280;30146;52.268;20.944;2023-02-26T01:32:29;99056.10;;;1.79;67.39
44441;BME280;30146;52.268;20.944;2023-02-26T01:35:12;99059.63;;;1.77;67.13
44441;BME280;30146;52.268;20.944;2023-02-26T01:37:49;99065.35;;;1.75;67.20
44441;BME280;30146;52.268;20.944;2023-02-26T01:40:58;99071.41;;;1.76;67.06
44441;BME280;30146;52.268;20.944;2023-02-26T01:43:34;99081.34;;;1.75;66.98
44441;BME280;30146;52.268;20.944;2023-02-26T01:46:13;99087.25;;;1.74;67.12
44441;BME280;30146;52.268;20.944;2023-02-26T01:48:49;99090.27;;;1.72;67.07
44441;BME280;30146;52.268;20.944;2023-02-26T01:51:18;99094.31;;;1.70;67.01
44441;BME280;30146;52.268;20.944;2023-02-26T01:53:47;99097.15;;;1.70;67.10
44441;BME280;30146;52.268;20.944;2023-02-26T01:56:17;99103.88;;;1.68;66.82
44441;BME280;30146;52.268;20.944;2023-02-26T01:58:49;99110.43;;;1.65;66.84
44441;BME280;30146;52.268;20.944;2023-02-26T02:01:17;99108.90;;;1.62;66.82
44441;BME280;30146;52.268;20.944;2023-02-26T02:03:45;99115.27;;;1.58;66.66
44441;BME280;30146;52.268;20.944;2023-02-26T02:06:18;99122.66;;;1.55;66.69
44441;BME280;30146;52.268;20.944;2023-02-26T02:08:48;99132.75;;;1.53;66.69
44441;BME280;30146;52.268;20.944;2023-02-26T02:11:16;99140.83;;;1.51;66.94
44441;BME280;30146;52.268;20.944;2023-02-26T02:13:57;99148.75;;;1.53;66.91
44441;BME280;30146;52.268;20.944;2023-02-26T02:16:33;99154.98;;;1.52;66.92
44441;BME280;30146;52.268;20.944;2023-02-26T02:19:19;99163.23;;;1.51;66.69
44441;BME280;30146;52.268;20.944;2023-02-26T02:22:21;99169.95;;;1.50;66.69
44441;BME280;30146;52.268;20.944;2023-02-26T02:25:10;99170.94;;;1.47;66.52
44441;BME280;30146;52.268;20.944;2023-02-26T02:27:48;99181.54;;;1.45;66.48
44441;BME280;30146;52.268;20.944;2023-02-26T02:30:32;99187.25;;;1.45;66.40
44441;BME280;30146;52.268;20.944;2023-02-26T02:33:12;99193.98;;;1.45;66.62
44441;BME280;30146;52.268;20.944;2023-02-26T02:35:44;99201.91;;;1.46;66.36
44441;BME280;30146;52.268;20.944;2023-02-26T02:38:19;99204.61;;;1.48;66.38
44441;BME280;30146;52.268;20.944;2023-02-26T02:40:54;99207.66;;;1.50;66.54
44441;BME280;30146;52.268;20.944;2023-02-26T02:43:28;99208.70;;;1.51;66.47
44441;BME280;30146;52.268;20.944;2023-02-26T02:46:00;99213.06;;;1.51;66.40
44441;BME280;30146;52.268;20.944;2023-02-26T02:48:33;99210.56;;;1.54;66.45
44441;BME280;30146;52.268;20.944;2023-02-26T02:51:06;99212.43;;;1.55;66.26
44441;BME280;30146;52.268;20.944;2023-02-26T02:53:40;99212.59;;;1.54;66.10
44441;BME280;30146;52.268;20.944;2023-02-26T02:56:15;99219.35;;;1.55;66.34
44441;BME280;30146;52.268;20.944;2023-02-26T02:58:50;99220.73;;;1.60;66.45
44441;BME280;30146;52.268;20.944;2023-02-26T03:01:22;99223.11;;;1.63;66.55
44441;BME280;30146;52.268;20.944;2023-02-26T03:03:57;99223.29;;;1.66;66.35
44441;BME280;30146;52.268;20.944;2023-02-26T03:06:26;99226.87;;;1.69;66.26
44441;BME280;30146;52.268;20.944;2023-02-26T03:08:55;99230.27;;;1.72;66.37
44441;BME280;30146;52.268;20.944;2023-02-26T03:11:23;99233.82;;;1.75;66.15
44441;BME280;30146;52.268;20.944;2023-02-26T03:13:51;99237.20;;;1.76;66.07
44441;BME280;30146;52.268;20.944;2023-02-26T03:16:45;99246.30;;;1.76;65.82
44441;BME280;30146;52.268;20.944;2023-02-26T03:19:22;99254.20;;;1.75;65.69
44441;BME280;30146;52.268;20.944;2023-02-26T03:21:56;99264.15;;;1.75;65.88
44441;BME280;30146;52.268;20.944;2023-02-26T03:24:50;99271.89;;;1.75;65.90
44441;BME280;30146;52.268;20.944;2023-02-26T03:27:24;99273.89;;;1.72;65.74
44441;BME280;30146;52.268;20.944;2023-02-26T03:29:56;99279.27;;;1.70;65.71
44441;BME280;30146;52.268;20.944;2023-02-26T03:32:30;99289.20;;;1.69;65.76
44441;BME280;30146;52.268;20.944;2023-02-26T03:35:06;99289.86;;;1.68;65.59
44441;BME280;30146;52.268;20.944;2023-02-26T03:37:36;99292.35;;;1.64;65.37
44441;BME280;30146;52.268;20.944;2023-02-26T03:40:10;99297.39;;;1.61;65.52
44441;BME280;30146;52.268;20.944;2023-02-26T03:42:46;99301.75;;;1.61;65.61
44441;BME280;30146;52.268;20.944;2023-02-26T03:45:19;99308.33;;;1.62;65.67
44441;BME280;30146;52.268;20.944;2023-02-26T03:47:51;99313.57;;;1.64;65.70
44441;BME280;30146;52.268;20.944;2023-02-26T03:50:26;99313.59;;;1.65;65.85
44441;BME280;30146;52.268;20.944;2023-02-26T03:53:15;99319.69;;;1.69;65.78
44441;BME280;30146;52.268;20.944;2023-02-26T03:55:52;99318.20;;;1.71;65.50
44441;BME280;30146;52.268;20.944;2023-02-26T03:58:36;99324.78;;;1.73;65.69
44441;BME280;30146;52.268;20.944;2023-02-26T04:01:19;99328.86;;;1.76;65.53
44441;BME280;30146;52.268;20.944;2023-02-26T04:03:56;99328.39;;;1.79;65.59
44441;BME280;30146;52.268;20.944;2023-02-26T04:06:27;99329.91;;;1.81;65.51
44441;BME280;30146;52.268;20.944;2023-02-26T04:08:56;99334.65;;;1.83;65.27
44441;BME280;30146;52.268;20.944;2023-02-26T04:11:25;99337.20;;;1.84;65.33
44441;BME280;30146;52.268;20.944;2023-02-26T04:13:54;99340.05;;;1.83;65.27
44441;BME280;30146;52.268;20.944;2023-02-26T04:16:22;99341.07;;;1.83;65.11
44441;BME280;30146;52.268;20.944;2023-02-26T04:18:51;99347.80;;;1.83;64.97
44441;BME280;30146;52.268;20.944;2023-02-26T04:21:21;99355.86;;;1.81;65.15
44441;BME280;30146;52.268;20.944;2023-02-26T04:23:50;99362.09;;;1.82;65.21
44441;BME280;30146;52.268;20.944;2023-02-26T04:26:18;99367.18;;;1.84;65.31
44441;BME280;30146;52.268;20.944;2023-02-26T04:28:46;99374.27;;;1.86;65.22
44441;BME280;30146;52.268;20.944;2023-02-26T04:31:14;99377.81;;;1.86;65.00
44441;BME280;30146;52.268;20.944;2023-02-26T04:33:42;99375.63;;;1.86;64.93
44441;BME280;30146;52.268;20.944;2023-02-26T04:36:10;99376.98;;;1.88;65.22
44441;BME280;30146;52.268;20.944;2023-02-26T04:38:38;99379.19;;;1.89;65.37
44441;BME280;30146;52.268;20.944;2023-02-26T04:41:07;99381.08;;;1.91;65.09
44441;BME280;30146;52.268;20.944;2023-02-26T04:43:35;99384.80;;;1.93;65.34
44441;BME280;30146;52.268;20.944;2023-02-26T04:46:39;99384.64;;;1.94;65.21
44441;BME280;30146;52.268;20.944;2023-02-26T04:49:07;99386.16;;;1.95;65.37
44441;BME280;30146;52.268;20.944;2023-02-26T04:51:36;99391.23;;;1.96;65.27
44441;BME280;30146;52.268;20.944;2023-02-26T04:54:04;99391.77;;;1.98;65.46
44441;BME280;30146;52.268;20.944;2023-02-26T04:56:32;99395.33;;;2.01;65.34
44441;BME280;30146;52.268;20.944;2023-02-26T04:59:01;99402.25;;;2.02;65.30
44441;BME280;30146;52.268;20.944;2023-02-26T05:01:30;99406.96;;;2.01;65.31
44441;BME280;30146;52.268;20.944;2023-02-26T05:03:59;99409.13;;;1.98;64.86
44441;BME280;30146;52.268;20.944;2023-02-26T05:06:27;99413.45;;;1.93;64.87
44441;BME280;30146;52.268;20.944;2023-02-26T05:08:55;99412.23;;;1.89;64.96
44441;BME280;30146;52.268;20.944;2023-02-26T05:11:23;99413.73;;;1.87;65.14
44441;BME280;30146;52.268;20.944;2023-02-26T05:13:51;99419.42;;;1.85;64.89
44441;BME280;30146;52.268;20.944;2023-02-26T05:16:19;99427.31;;;1.81;65.00
44441;BME280;30146;52.268;20.944;2023-02-26T05:18:48;99435.21;;;1.79;65.17
44441;BME280;30146;52.268;20.944;2023-02-26T05:21:16;99441.95;;;1.79;65.14
44441;BME280;30146;52.268;20.944;2023-02-26T05:23:44;99446.48;;;1.79;65.11
44441;BME280;30146;52.268;20.944;2023-02-26T05:26:12;99449.19;;;1.78;65.02
44441;BME280;30146;52.268;20.944;2023-02-26T05:28:41;99455.73;;;1.77;65.01
44441;BME280;30146;52.268;20.944;2023-02-26T05:31:12;99458.27;;;1.77;64.92
44441;BME280;30146;52.268;20.944;2023-02-26T05:33:41;99462.46;;;1.76;64.77
44441;BME280;30146;52.268;20.944;2023-02-26T05:36:10;99469.20;;;1.74;64.49
44441;BME280;30146;52.268;20.944;2023-02-26T05:38:39;99472.01;;;1.70;64.35
44441;BME280;30146;52.268;20.944;2023-02-26T05:41:07;99477.70;;;1.68;64.41
44441;BME280;30146;52.268;20.944;2023-02-26T05:43:35;99485.08;;;1.65;64.54
44441;BME280;30146;52.268;20.944;2023-02-26T05:46:03;99490.45;;;1.64;64.42
44441;BME280;30146;52.268;20.944;2023-02-26T05:48:32;99496.31;;;1.62;64.35
44441;BME280;30146;52.268;20.944;2023-02-26T05:51:00;99505.36;;;1.58;64.23
44441;BME280;30146;52.268;20.944;2023-02-26T05:53:29;99516.20;;;1.50;63.75
44441;BME280;30146;52.268;20.944;2023-02-26T05:55:57;99522.84;;;1.43;63.84
44441;BME280;30146;52.268;20.944;2023-02-26T05:58:25;99531.67;;;1.37;63.50
44441;BME280;30146;52.268;20.944;2023-02-26T06:00:53;99536.27;;;1.29;63.31
44441;BME280;30146;52.268;20.944;2023-02-26T06:03:21;99538.05;;;1.23;63.43
44441;BME280;30146;52.268;20.944;2023-02-26T06:05:49;99543.34;;;1.18;63.15
44441;BME280;30146;52.268;20.944;2023-02-26T06:08:17;99549.85;;;1.14;63.00
44441;BME280;30146;52.268;20.944;2023-02-26T06:10:45;99554.33;;;1.09;62.92
44441;BME280;30146;52.268;20.944;2023-02-26T06:13:13;99559.63;;;1.05;62.59
44441;BME280;30146;52.268;20.944;2023-02-26T06:15:41;99563.10;;;1.01;62.58
44441;BME280;30146;52.268;20.944;2023-02-26T06:18:09;99566.73;;;0.96;62.57
44441;BME280;30146;52.268;20.944;2023-02-26T06:20:37;99570.34;;;0.91;62.51
44441;BME280;30146;52.268;20.944;2023-02-26T06:23:05;99574.13;;;0.86;62.44
44441;BME280;30146;52.268;20.944;2023-02-26T06:25:33;99577.42;;;0.82;62.21
44441;BME280;30146;52.268;20.944;2023-02-26T06:28:01;99586.77;;;0.77;62.38
44441;BME280;30146;52.268;20.944;2023-02-26T06:30:29;99593.93;;;0.73;62.43
44441;BME280;30146;52.268;20.944;2023-02-26T06:32:57;99599.23;;;0.69;62.41
44441;BME280;30146;52.268;20.944;2023-02-26T06:35:25;99604.25;;;0.68;62.32
44441;BME280;30146;52.268;20.944;2023-02-26T06:37:54;99608.63;;;0.68;62.47
44441;BME280;30146;52.268;20.944;2023-02-26T06:40:22;99611.81;;;0.68;62.49
44441;BME280;30146;52.268;20.944;2023-02-26T06:42:50;99618.72;;;0.68;62.46
44441;BME280;30146;52.268;20.944;2023-02-26T06:45:18;99623.62;;;0.69;62.46
44441;BME280;30146;52.268;20.944;2023-02-26T06:47:46;99624.00;;;0.71;62.54
44441;BME280;30146;52.268;20.944;2023-02-26T06:50:14;99629.42;;;0.73;62.36
44441;BME280;30146;52.268;20.944;2023-02-26T06:52:42;99633.31;;;0.76;62.42
44441;BME280;30146;52.268;20.944;2023-02-26T06:55:11;99634.38;;;0.78;62.21
44441;BME280;30146;52.268;20.944;2023-02-26T06:57:40;99639.96;;;0.79;62.01
44441;BME280;30146;52.268;20.944;2023-02-26T07:00:10;99646.90;;;0.82;61.87
44441;BME280;30146;52.268;20.944;2023-02-26T07:02:38;99649.46;;;0.84;61.88
44441;BME280;30146;52.268;20.944;2023-02-26T07:05:08;99653.06;;;0.87;61.80
44441;BME280;30146;52.268;20.944;2023-02-26T07:07:36;99659.31;;;0.88;61.49
44441;BME280;30146;52.268;20.944;2023-02-26T07:10:05;99666.41;;;0.91;61.30
44441;BME280;30146;52.268;20.944;2023-02-26T07:12:33;99670.68;;;0.93;61.25
44441;BME280;30146;52.268;20.944;2023-02-26T07:15:01;99674.95;;;0.97;61.25
44441;BME280;30146;52.268;20.944;2023-02-26T07:17:29;99681.98;;;1.04;61.38
44441;BME280;30146;52.268;20.944;2023-02-26T07:19:57;99686.59;;;1.08;61.13
44441;BME280;30146;52.268;20.944;2023-02-26T07:22:25;99688.33;;;1.11;61.24
44441;BME280;30146;52.268;20.944;2023-02-26T07:24:53;99695.67;;;1.17;61.22
44441;BME280;30146;52.268;20.944;2023-02-26T07:27:22;99695.24;;;1.21;61.29
44441;BME280;30146;52.268;20.944;2023-02-26T07:29:50;99695.69;;;1.27;61.33
44441;BME280;30146;52.268;20.944;2023-02-26T07:32:18;99703.52;;;1.32;61.21
44441;BME280;30146;52.268;20.944;2023-02-26T07:34:46;99705.13;;;1.37;61.17
44441;BME280;30146;52.268;20.944;2023-02-26T07:37:14;99710.04;;;1.40;61.14
44441;BME280;30146;52.268;20.944;2023-02-26T07:39:42;99715.10;;;1.40;60.68
44441;BME280;30146;52.268;20.944;2023-02-26T07:42:11;99724.88;;;1.40;60.65
44441;BME280;30146;52.268;20.944;2023-02-26T07:44:42;99726.88;;;1.39;60.52
44441;BME280;30146;52.268;20.944;2023-02-26T07:47:10;99729.02;;;1.36;60.44
44441;BME280;30146;52.268;20.944;2023-02-26T07:49:38;99736.23;;;1.34;60.30
44441;BME280;30146;52.268;20.944;2023-02-26T07:52:07;99737.23;;;1.35;60.60
44441;BME280;30146;52.268;20.944;2023-02-26T07:54:35;99742.18;;;1.38;60.71
44441;BME280;30146;52.268;20.944;2023-02-26T07:57:04;99746.14;;;1.42;60.75
44441;BME280;30146;52.268;20.944;2023-02-26T07:59:32;99751.11;;;1.47;60.74
44441;BME280;30146;52.268;20.944;2023-02-26T08:02:00;99754.52;;;1.50;60.96
44441;BME280;30146;52.268;20.944;2023-02-26T08:04:28;99762.18;;;1.54;60.54
44441;BME280;30146;52.268;20.944;2023-02-26T08:06:59;99764.05;;;1.55;60.28
44441;BME280;30146;52.268;20.944;2023-02-26T08:09:28;99769.52;;;1.59;60.51
44441;BME280;30146;52.268;20.944;2023-02-26T08:11:57;99770.77;;;1.64;60.57
44441;BME280;30146;52.268;20.944;2023-02-26T08:14:25;99776.27;;;1.70;60.61
44441;BME280;30146;52.268;20.944;2023-02-26T08:16:53;99777.04;;;1.76;60.52
44441;BME280;30146;52.268;20.944;2023-02-26T08:19:21;99782.98;;;1.78;60.39
44441;BME280;30146;52.268;20.944;2023-02-26T08:21:49;99789.02;;;1.77;59.98
44441;BME280;30146;52.268;20.944;2023-02-26T08:24:17;99794.59;;;1.78;60.10
44441;BME280;30146;52.268;20.944;2023-02-26T08:26:46;99801.35;;;1.79;59.96
44441;BME280;30146;52.268;20.944;2023-02-26T08:29:14;99808.63;;;1.80;60.15
44441;BME280;30146;52.268;20.944;2023-02-26T08:31:42;99805.74;;;1.79;59.83
44441;BME280;30146;52.268;20.944;2023-02-26T08:34:10;99811.63;;;1.79;59.92
44441;BME280;30146;52.268;20.944;2023-02-26T08:36:38;99811.43;;;1.77;59.85
44441;BME280;30146;52.268;20.944;2023-02-26T08:39:07;99821.66;;;1.74;59.43
44441;BME280;30146;52.268;20.944;2023-02-26T08:41:35;99824.42;;;1.68;59.41
44441;BME280;30146;52.268;20.944;2023-02-26T08:44:03;99827.02;;;1.63;59.43
44441;BME280;30146;52.268;20.944;2023-02-26T08:46:31;99828.17;;;1.61;59.32
44441;BME280;30146;52.268;20.944;2023-02-26T08:48:59;99833.96;;;1.56;59.24
44441;BME280;30146;52.268;20.944;2023-02-26T08:51:28;99843.20;;;1.54;59.26
44441;BME280;30146;52.268;20.944;2023-02-26T08:53:55;99844.57;;;1.56;59.40
44441;BME280;30146;52.268;20.944;2023-02-26T08:56:24;99857.08;;;1.58;59.56
44441;BME280;30146;52.268;20.944;2023-02-26T08:58:52;99856.61;;;1.60;59.44
44441;BME280;30146;52.268;20.944;2023-02-26T09:01:20;99860.47;;;1.59;59.36
44441;BME280;30146;52.268;20.944;2023-02-26T09:03:48;99868.43;;;1.61;59.16
44441;BME280;30146;52.268;20.944;2023-02-26T09:06:16;99873.50;;;1.62;59.27
44441;BME280;30146;52.268;20.944;2023-02-26T09:08:44;99879.27;;;1.64;59.18
44441;BME280;30146;52.268;20.944;2023-02-26T09:11:12;99884.51;;;1.65;59.32
44441;BME280;30146;52.268;20.944;2023-02-26T09:13:40;99887.61;;;1.68;59.41
44441;BME280;30146;52.268;20.944;2023-02-26T09:16:09;99895.77;;;1.72;59.24
44441;BME280;30146;52.268;20.944;2023-02-26T09:18:37;99898.02;;;1.75;59.13
44441;BME280;30146;52.268;20.944;2023-02-26T09:21:06;99900.06;;;1.77;59.19
44441;BME280;30146;52.268;20.944;2023-02-26T09:23:34;99905.00;;;1.80;59.22
44441;BME280;30146;52.268;20.944;2023-02-26T09:26:02;99911.30;;;1.82;58.98
44441;BME280;30146;52.268;20.944;2023-02-26T09:28:30;99914.34;;;1.83;58.81
44441;BME280;30146;52.268;20.944;2023-02-26T09:30:58;99913.61;;;1.81;58.78
44441;BME280;30146;52.268;20.944;2023-02-26T09:33:26;99916.76;;;1.78;58.59
44441;BME280;30146;52.268;20.944;2023-02-26T09:35:54;99920.94;;;1.76;58.67
44441;BME280;30146;52.268;20.944;2023-02-26T09:38:22;99922.27;;;1.75;58.92
44441;BME280;30146;52.268;20.944;2023-02-26T09:40:56;99930.11;;;1.80;58.87
44441;BME280;30146;52.268;20.944;2023-02-26T09:46:32;99938.02;;;1.88;59.22
44441;BME280;30146;52.268;20.944;2023-02-26T09:49:14;99941.97;;;1.92;59.10
44441;BME280;30146;52.268;20.944;2023-02-26T09:51:46;99948.95;;;1.95;59.10
44441;BME280;30146;52.268;20.944;2023-02-26T09:54:20;99956.73;;;1.97;59.25
44441;BME280;30146;52.268;20.944;2023-02-26T09:56:49;99964.02;;;1.99;59.31
44441;BME280;30146;52.268;20.944;2023-02-26T09:59:19;99969.14;;;2.02;59.17
44441;BME280;30146;52.268;20.944;2023-02-26T10:01:53;99966.67;;;2.05;59.34
44441;BME280;30146;52.268;20.944;2023-02-26T10:04:37;99969.94;;;2.08;59.17
44441;BME280;30146;52.268;20.944;2023-02-26T10:07:17;99973.83;;;2.09;59.19
44441;BME280;30146;52.268;20.944;2023-02-26T10:09:59;99973.03;;;2.11;59.30
44441;BME280;30146;52.268;20.944;2023-02-26T10:12:33;99978.77;;;2.11;59.15
44441;BME280;30146;52.268;20.944;2023-02-26T10:15:07;99981.13;;;2.11;59.22
44441;BME280;30146;52.268;20.944;2023-02-26T10:17:44;99984.29;;;2.10;59.25
44441;BME280;30146;52.268;20.944;2023-02-26T10:20:20;99989.38;;;2.11;59.17
44441;BME280;30146;52.268;20.944;2023-02-26T10:22:57;99985.02;;;2.12;59.28
44441;BME280;30146;52.268;20.944;2023-02-26T10:25:30;99989.92;;;2.14;59.35
44441;BME280;30146;52.268;20.944;2023-02-26T10:28:06;99990.95;;;2.15;59.45
44441;BME280;30146;52.268;20.944;2023-02-26T10:30:41;99997.09;;;2.18;59.53
44441;BME280;30146;52.268;20.944;2023-02-26T10:33:18;100003.03;;;2.20;59.32
44441;BME280;30146;52.268;20.944;2023-02-26T10:35:51;100003.25;;;2.22;59.38
44441;BME280;30146;52.268;20.944;2023-02-26T10:38:24;100009.77;;;2.20;58.80
44441;BME280;30146;52.268;20.944;2023-02-26T10:40:57;100015.97;;;2.18;58.66
44441;BME280;30146;52.268;20.944;2023-02-26T10:43:33;100020.48;;;2.15;58.76
44441;BME280;30146;52.268;20.944;2023-02-26T10:46:11;100022.89;;;2.09;58.09
44441;BME280;30146;52.268;20.944;2023-02-26T10:48:56;100028.85;;;2.04;58.05
44441;BME280;30146;52.268;20.944;2023-02-26T10:51:34;100030.31;;;2.01;58.16
44441;BME280;30146;52.268;20.944;2023-02-26T10:54:09;100033.28;;;1.98;57.91
44441;BME280;30146;52.268;20.944;2023-02-26T10:56:40;100037.48;;;1.97;57.99
44441;BME280;30146;52.268;20.944;2023-02-26T10:59:08;100040.87;;;1.98;57.86
44441;BME280;30146;52.268;20.944;2023-02-26T11:01:37;100041.64;;;2.02;57.84
44441;BME280;30146;52.268;20.944;2023-02-26T11:04:10;100047.10;;;2.06;57.51
44441;BME280;30146;52.268;20.944;2023-02-26T11:06:42;100048.88;;;2.10;57.42
44441;BME280;30146;52.268;20.944;2023-02-26T11:09:18;100050.30;;;2.14;57.36
44441;BME280;30146;52.268;20.944;2023-02-26T11:11:49;100055.09;;;2.18;57.27
44441;BME280;30146;52.268;20.944;2023-02-26T11:14:19;100056.20;;;2.22;57.16
44441;BME280;30146;52.268;20.944;2023-02-26T11:16:51;100058.50;;;2.28;57.07
44441;BME280;30146;52.268;20.944;2023-02-26T11:19:25;100061.92;;;2.31;56.89
44441;BME280;30146;52.268;20.944;2023-02-26T11:21:54;100065.90;;;2.35;56.74
44441;BME280;30146;52.268;20.944;2023-02-26T11:24:29;100069.88;;;2.40;56.82
44441;BME280;30146;52.268;20.944;2023-02-26T11:27:02;100068.45;;;2.46;56.66
44441;BME280;30146;52.268;20.944;2023-02-26T11:29:36;100074.11;;;2.50;56.70
44441;BME280;30146;52.268;20.944;2023-02-26T11:32:06;100077.21;;;2.53;56.59
44441;BME280;30146;52.268;20.944;2023-02-26T11:34:34;100084.52;;;2.57;56.37
44441;BME280;30146;52.268;20.944;2023-02-26T11:37:04;100085.27;;;2.60;56.64
44441;BME280;30146;52.268;20.944;2023-02-26T11:39:35;100089.22;;;2.64;56.41
44441;BME280;30146;52.268;20.944;2023-02-26T11:42:05;100088.94;;;2.67;56.23
44441;BME280;30146;52.268;20.944;2023-02-26T11:44:38;100094.67;;;2.66;55.95
44441;BME280;30146;52.268;20.944;2023-02-26T11:47:12;100094.66;;;2.66;55.91
44441;BME280;30146;52.268;20.944;2023-02-26T11:49:43;100101.17;;;2.63;55.77
44441;BME280;30146;52.268;20.944;2023-02-26T11:52:22;100106.52;;;2.60;55.63
44441;BME280;30146;52.268;20.944;2023-02-26T11:54:58;100108.84;;;2.58;56.00
44441;BME280;30146;52.268;20.944;2023-02-26T11:57:29;100111.05;;;2.59;56.05
44441;BME280;30146;52.268;20.944;2023-02-26T11:59:59;100112.38;;;2.57;56.18
44441;BME280;30146;52.268;20.944;2023-02-26T12:02:32;100114.73;;;2.56;55.88
44441;BME280;30146;52.268;20.944;2023-02-26T12:05:04;100120.27;;;2.56;55.81
44441;BME280;30146;52.268;20.944;2023-02-26T12:07:33;100124.04;;;2.58;56.42
44441;BME280;30146;52.268;20.944;2023-02-26T12:10:01;100128.62;;;2.59;56.00
44441;BME280;30146;52.268;20.944;2023-02-26T12:12:40;100134.77;;;2.63;56.34
44441;BME280;30146;52.268;20.944;2023-02-26T12:15:27;100138.85;;;2.65;56.07
44441;BME280;30146;52.268;20.944;2023-02-26T12:18:21;100141.58;;;2.66;56.07
44441;BME280;30146;52.268;20.944;2023-02-26T12:20:57;100144.88;;;2.72;56.35
44441;BME280;30146;52.268;20.944;2023-02-26T12:23:56;100150.86;;;2.76;56.28
44441;BME280;30146;52.268;20.944;2023-02-26T12:26:32;100150.96;;;2.81;56.21
44441;BME280;30146;52.268;20.944;2023-02-26T12:29:20;100151.88;;;2.84;55.94
44441;BME280;30146;52.268;20.944;2023-02-26T12:32:20;100158.11;;;2.84;55.91
44441;BME280;30146;52.268;20.944;2023-02-26T12:35:22;100159.63;;;2.83;56.07
44441;BME280;30146;52.268;20.944;2023-02-26T12:38:12;100158.95;;;2.84;55.99
44441;BME280;30146;52.268;20.944;2023-02-26T12:41:12;100161.81;;;2.83;55.83
44441;BME280;30146;52.268;20.944;2023-02-26T12:43:48;100161.11;;;2.81;55.49
44441;BME280;30146;52.268;20.944;2023-02-26T12:46:38;100162.73;;;2.79;55.23
44441;BME280;30146;52.268;20.944;2023-02-26T12:49:32;100166.93;;;2.78;55.26
44441;BME280;30146;52.268;20.944;2023-02-26T12:52:17;100171.27;;;2.74;55.08
44441;BME280;30146;52.268;20.944;2023-02-26T12:55:02;100172.77;;;2.74;55.09
44441;BME280;30146;52.268;20.944;2023-02-26T12:57:52;100175.49;;;2.75;54.70
44441;BME280;30146;52.268;20.944;2023-02-26T13:00:24;100176.17;;;2.76;54.81
44441;BME280;30146;52.268;20.944;2023-02-26T13:03:31;100179.87;;;2.74;54.61
44441;BME280;30146;52.268;20.944;2023-02-26T13:06:40;100176.33;;;2.74;54.93
44441;BME280;30146;52.268;20.944;2023-02-26T13:09:23;100180.66;;;2.80;54.92
44441;BME280;30146;52.268;20.944;2023-02-26T13:12:02;100186.64;;;2.84;55.07
44441;BME280;30146;52.268;20.944;2023-02-26T13:14:46;100189.11;;;2.90;54.92
44441;BME280;30146;52.268;20.944;2023-02-26T13:17:23;100189.04;;;2.95;54.80
44441;BME280;30146;52.268;20.944;2023-02-26T13:19:56;100194.70;;;3.00;54.80
44441;BME280;30146;52.268;20.944;2023-02-26T13:22:29;100195.42;;;3.02;54.61
44441;BME280;30146;52.268;20.944;2023-02-26T13:25:01;100198.30;;;3.02;54.32
44441;BME280;30146;52.268;20.944;2023-02-26T13:27:34;100199.43;;;3.00;54.15
44441;BME280;30146;52.268;20.944;2023-02-26T13:30:17;100199.25;;;2.99;54.37